Terminal Aerodrome Forecast
Issued by NWS

Home | Current Version | Previous Version | Text Only | Print | Product List | Glossary On
Versions: 1 2 3 4 5 6 7 8 9 10 11 12 13 14 15
000
FTAK31 PAJN 042300
TAFAYA
TAF
PAYA 042322Z 0500/0524 25005KT P6SM SCT025 BKN150
     FM050300 VRB03KT P6SM SCT020 BKN100
     FM051000 00000KT P6SM BKN005 BKN080
     FM051900 27005KT P6SM BKN010 BKN120
      AMD LTD TO CLD VIS AND WIND 0501/0510=

USA.gov is the U.S. government's official web portal to all federal, state and local government web resources and services.